Columbus, Ohio
Traffic Map
Current Weather Conditions
Columbus, Ohio
Overcast
Overcast
19°
Feels Like: 19°
Wind Chill: 19° Ceiling: 14000
Heat Index: 19° Visibility: 9mi
Dew Point: 14° Wind: 0mph
Humidity: 81% Direction: ° ()
Pressure: 30.04in Gusts: 0mph
Raw Report DataKCMH 150751Z 00000KT 9SM OVC140 M07/M10 A3004 RMK AO2 SLP182 T10721100
Traffic Incident Summary
Active as of:
Severity:
Category:
InformationThere was an issue retrieving the traffic information for this location. Please try a different location or try again shortly.
Advertisements